sensor_id;sensor_type;location;lat;lon;timestamp;pressure;altitude;pressure_sealevel;temperature
15575;BMP180;7888;46.748;8.102;2023-04-25T00:00:19;93571.00;;;15.50
15575;BMP180;7888;46.748;8.102;2023-04-25T00:02:45;93579.00;;;15.50
15575;BMP180;7888;46.748;8.102;2023-04-25T00:05:12;93575.00;;;15.50
15575;BMP180;7888;46.748;8.102;2023-04-25T00:07:40;93561.00;;;15.40
15575;BMP180;7888;46.748;8.102;2023-04-25T00:10:09;93573.00;;;15.40
15575;BMP180;7888;46.748;8.102;2023-04-25T00:12:36;93577.00;;;15.40
15575;BMP180;7888;46.748;8.102;2023-04-25T00:15:03;93571.00;;;15.40
15575;BMP180;7888;46.748;8.102;2023-04-25T00:17:29;93567.00;;;15.40
15575;BMP180;7888;46.748;8.102;2023-04-25T00:19:56;93570.00;;;15.40
15575;BMP180;7888;46.748;8.102;2023-04-25T00:22:23;93561.00;;;15.40
15575;BMP180;7888;46.748;8.102;2023-04-25T00:24:49;93564.00;;;15.40
15575;BMP180;7888;46.748;8.102;2023-04-25T00:27:16;93561.00;;;15.40
15575;BMP180;7888;46.748;8.102;2023-04-25T00:29:42;93562.00;;;15.40
15575;BMP180;7888;46.748;8.102;2023-04-25T00:32:08;93561.00;;;15.40
15575;BMP180;7888;46.748;8.102;2023-04-25T00:34:33;93558.00;;;15.40
15575;BMP180;7888;46.748;8.102;2023-04-25T00:37:00;93566.00;;;15.40
15575;BMP180;7888;46.748;8.102;2023-04-25T00:39:27;93563.00;;;15.40
15575;BMP180;7888;46.748;8.102;2023-04-25T00:41:54;93542.00;;;15.30
15575;BMP180;7888;46.748;8.102;2023-04-25T00:44:22;93558.00;;;15.30
15575;BMP180;7888;46.748;8.102;2023-04-25T00:46:48;93548.00;;;15.30
15575;BMP180;7888;46.748;8.102;2023-04-25T00:49:17;93562.00;;;15.30
15575;BMP180;7888;46.748;8.102;2023-04-25T00:51:43;93554.00;;;15.30
15575;BMP180;7888;46.748;8.102;2023-04-25T00:54:12;93550.00;;;15.30
15575;BMP180;7888;46.748;8.102;2023-04-25T00:56:39;93546.00;;;15.30
15575;BMP180;7888;46.748;8.102;2023-04-25T00:59:05;93540.00;;;15.20
15575;BMP180;7888;46.748;8.102;2023-04-25T01:01:31;93559.00;;;15.20
15575;BMP180;7888;46.748;8.102;2023-04-25T01:04:00;93547.00;;;15.20
15575;BMP180;7888;46.748;8.102;2023-04-25T01:06:27;93548.00;;;15.20
15575;BMP180;7888;46.748;8.102;2023-04-25T01:08:53;93551.00;;;15.20
15575;BMP180;7888;46.748;8.102;2023-04-25T01:11:19;93541.00;;;15.20
15575;BMP180;7888;46.748;8.102;2023-04-25T01:13:45;93543.00;;;15.20
15575;BMP180;7888;46.748;8.102;2023-04-25T01:16:11;93549.00;;;15.20
15575;BMP180;7888;46.748;8.102;2023-04-25T01:18:40;93537.00;;;15.20
15575;BMP180;7888;46.748;8.102;2023-04-25T01:21:08;93530.00;;;15.20
15575;BMP180;7888;46.748;8.102;2023-04-25T01:23:36;93528.00;;;15.20
15575;BMP180;7888;46.748;8.102;2023-04-25T01:26:03;93516.00;;;15.20
15575;BMP180;7888;46.748;8.102;2023-04-25T01:28:29;93527.00;;;15.10
15575;BMP180;7888;46.748;8.102;2023-04-25T01:30:56;93509.00;;;15.00
15575;BMP180;7888;46.748;8.102;2023-04-25T01:33:22;93522.00;;;15.00
15575;BMP180;7888;46.748;8.102;2023-04-25T01:35:48;93520.00;;;15.00
15575;BMP180;7888;46.748;8.102;2023-04-25T01:38:14;93525.00;;;15.00
15575;BMP180;7888;46.748;8.102;2023-04-25T01:40:41;93519.00;;;14.90
15575;BMP180;7888;46.748;8.102;2023-04-25T01:43:09;93524.00;;;14.90
15575;BMP180;7888;46.748;8.102;2023-04-25T01:45:38;93509.00;;;14.90
15575;BMP180;7888;46.748;8.102;2023-04-25T01:48:08;93489.00;;;14.90
15575;BMP180;7888;46.748;8.102;2023-04-25T01:50:35;93522.00;;;14.90
15575;BMP180;7888;46.748;8.102;2023-04-25T01:53:01;93508.00;;;14.80
15575;BMP180;7888;46.748;8.102;2023-04-25T01:55:28;93511.00;;;14.70
15575;BMP180;7888;46.748;8.102;2023-04-25T01:57:54;93509.00;;;14.60
15575;BMP180;7888;46.748;8.102;2023-04-25T02:00:20;93517.00;;;14.50
15575;BMP180;7888;46.748;8.102;2023-04-25T02:02:46;93507.00;;;14.40
15575;BMP180;7888;46.748;8.102;2023-04-25T02:05:12;93485.00;;;14.30
15575;BMP180;7888;46.748;8.102;2023-04-25T02:07:38;93504.00;;;14.30
15575;BMP180;7888;46.748;8.102;2023-04-25T02:10:04;93501.00;;;14.20
15575;BMP180;7888;46.748;8.102;2023-04-25T02:12:31;93496.00;;;14.10
15575;BMP180;7888;46.748;8.102;2023-04-25T02:14:57;93491.00;;;14.10
15575;BMP180;7888;46.748;8.102;2023-04-25T02:17:23;93481.00;;;14.10
15575;BMP180;7888;46.748;8.102;2023-04-25T02:19:49;93490.00;;;14.10
15575;BMP180;7888;46.748;8.102;2023-04-25T02:22:15;93491.00;;;14.10
15575;BMP180;7888;46.748;8.102;2023-04-25T02:24:41;93493.00;;;14.00
15575;BMP180;7888;46.748;8.102;2023-04-25T02:27:07;93493.00;;;14.00
15575;BMP180;7888;46.748;8.102;2023-04-25T02:29:33;93480.00;;;14.00
15575;BMP180;7888;46.748;8.102;2023-04-25T02:31:59;93479.00;;;14.10
15575;BMP180;7888;46.748;8.102;2023-04-25T02:34:25;93481.00;;;14.10
15575;BMP180;7888;46.748;8.102;2023-04-25T02:36:50;93441.00;;;14.10
15575;BMP180;7888;46.748;8.102;2023-04-25T02:39:17;93489.00;;;14.10
15575;BMP180;7888;46.748;8.102;2023-04-25T02:41:42;93487.00;;;14.10
15575;BMP180;7888;46.748;8.102;2023-04-25T02:44:08;93489.00;;;14.20
15575;BMP180;7888;46.748;8.102;2023-04-25T02:46:34;93481.00;;;14.20
15575;BMP180;7888;46.748;8.102;2023-04-25T02:49:00;93478.00;;;14.20
15575;BMP180;7888;46.748;8.102;2023-04-25T02:51:26;93489.00;;;14.20
15575;BMP180;7888;46.748;8.102;2023-04-25T02:53:52;93483.00;;;14.20
15575;BMP180;7888;46.748;8.102;2023-04-25T02:56:17;93478.00;;;14.20
15575;BMP180;7888;46.748;8.102;2023-04-25T02:58:44;93462.00;;;14.20
15575;BMP180;7888;46.748;8.102;2023-04-25T03:01:10;93481.00;;;14.20
15575;BMP180;7888;46.748;8.102;2023-04-25T03:03:36;93486.00;;;14.20
15575;BMP180;7888;46.748;8.102;2023-04-25T03:06:02;93483.00;;;14.20
15575;BMP180;7888;46.748;8.102;2023-04-25T03:08:28;93470.00;;;14.20
15575;BMP180;7888;46.748;8.102;2023-04-25T03:10:58;93491.00;;;14.20
15575;BMP180;7888;46.748;8.102;2023-04-25T03:13:24;93488.00;;;14.20
15575;BMP180;7888;46.748;8.102;2023-04-25T03:15:50;93461.00;;;14.20
15575;BMP180;7888;46.748;8.102;2023-04-25T03:18:16;93487.00;;;14.20
15575;BMP180;7888;46.748;8.102;2023-04-25T03:20:42;93480.00;;;14.20
15575;BMP180;7888;46.748;8.102;2023-04-25T03:23:08;93474.00;;;14.30
15575;BMP180;7888;46.748;8.102;2023-04-25T03:25:34;93475.00;;;14.30
15575;BMP180;7888;46.748;8.102;2023-04-25T03:28:01;93472.00;;;14.30
15575;BMP180;7888;46.748;8.102;2023-04-25T03:30:26;93478.00;;;14.30
15575;BMP180;7888;46.748;8.102;2023-04-25T03:32:52;93472.00;;;14.20
15575;BMP180;7888;46.748;8.102;2023-04-25T03:35:18;93470.00;;;14.20
15575;BMP180;7888;46.748;8.102;2023-04-25T03:37:44;93481.00;;;14.20
15575;BMP180;7888;46.748;8.102;2023-04-25T03:40:12;93479.00;;;14.20
15575;BMP180;7888;46.748;8.102;2023-04-25T03:42:38;93482.00;;;14.20
15575;BMP180;7888;46.748;8.102;2023-04-25T03:45:05;93480.00;;;14.20
15575;BMP180;7888;46.748;8.102;2023-04-25T03:47:31;93487.00;;;14.10
15575;BMP180;7888;46.748;8.102;2023-04-25T03:49:57;93487.00;;;14.00
15575;BMP180;7888;46.748;8.102;2023-04-25T03:52:22;93470.00;;;14.00
15575;BMP180;7888;46.748;8.102;2023-04-25T03:54:48;93489.00;;;13.90
15575;BMP180;7888;46.748;8.102;2023-04-25T03:57:14;93486.00;;;13.90
15575;BMP180;7888;46.748;8.102;2023-04-25T03:59:40;93493.00;;;13.80
15575;BMP180;7888;46.748;8.102;2023-04-25T04:02:06;93487.00;;;13.80
15575;BMP180;7888;46.748;8.102;2023-04-25T04:04:31;93490.00;;;13.70
15575;BMP180;7888;46.748;8.102;2023-04-25T04:06:57;93496.00;;;13.60
15575;BMP180;7888;46.748;8.102;2023-04-25T04:09:23;93473.00;;;13.50
15575;BMP180;7888;46.748;8.102;2023-04-25T04:11:49;93490.00;;;13.50
15575;BMP180;7888;46.748;8.102;2023-04-25T04:14:15;93489.00;;;13.40
15575;BMP180;7888;46.748;8.102;2023-04-25T04:16:41;93491.00;;;13.10
15575;BMP180;7888;46.748;8.102;2023-04-25T04:19:07;93494.00;;;13.20
15575;BMP180;7888;46.748;8.102;2023-04-25T04:21:33;93500.00;;;13.20
15575;BMP180;7888;46.748;8.102;2023-04-25T04:23:58;93506.00;;;13.10
15575;BMP180;7888;46.748;8.102;2023-04-25T04:26:25;93500.00;;;13.10
15575;BMP180;7888;46.748;8.102;2023-04-25T04:28:52;93502.00;;;13.10
15575;BMP180;7888;46.748;8.102;2023-04-25T04:31:21;93508.00;;;13.00
15575;BMP180;7888;46.748;8.102;2023-04-25T04:33:47;93507.00;;;13.00
15575;BMP180;7888;46.748;8.102;2023-04-25T04:36:13;93509.00;;;13.00
15575;BMP180;7888;46.748;8.102;2023-04-25T04:38:40;93513.00;;;12.90
15575;BMP180;7888;46.748;8.102;2023-04-25T04:41:06;93479.00;;;12.90
15575;BMP180;7888;46.748;8.102;2023-04-25T04:43:32;93520.00;;;12.90
15575;BMP180;7888;46.748;8.102;2023-04-25T04:46:02;93513.00;;;12.90
15575;BMP180;7888;46.748;8.102;2023-04-25T04:48:31;93505.00;;;12.90
15575;BMP180;7888;46.748;8.102;2023-04-25T04:50:59;93525.00;;;12.90
15575;BMP180;7888;46.748;8.102;2023-04-25T04:53:26;93510.00;;;12.90
15575;BMP180;7888;46.748;8.102;2023-04-25T04:55:53;93509.00;;;13.00
15575;BMP180;7888;46.748;8.102;2023-04-25T04:58:18;93495.00;;;13.00
15575;BMP180;7888;46.748;8.102;2023-04-25T05:00:45;93485.00;;;13.00
15575;BMP180;7888;46.748;8.102;2023-04-25T05:03:11;93500.00;;;13.00
15575;BMP180;7888;46.748;8.102;2023-04-25T05:05:37;93508.00;;;13.00
15575;BMP180;7888;46.748;8.102;2023-04-25T05:08:06;93501.00;;;13.00
15575;BMP180;7888;46.748;8.102;2023-04-25T05:10:31;93506.00;;;13.00
15575;BMP180;7888;46.748;8.102;2023-04-25T05:12:57;93501.00;;;13.00
15575;BMP180;7888;46.748;8.102;2023-04-25T05:15:23;93511.00;;;13.00
15575;BMP180;7888;46.748;8.102;2023-04-25T05:17:49;93508.00;;;13.00
15575;BMP180;7888;46.748;8.102;2023-04-25T05:20:15;93509.00;;;13.00
15575;BMP180;7888;46.748;8.102;2023-04-25T05:22:41;93502.00;;;13.00
15575;BMP180;7888;46.748;8.102;2023-04-25T05:25:08;93494.00;;;13.00
15575;BMP180;7888;46.748;8.102;2023-04-25T05:27:35;93487.00;;;13.00
15575;BMP180;7888;46.748;8.102;2023-04-25T05:30:01;93496.00;;;13.00
15575;BMP180;7888;46.748;8.102;2023-04-25T05:32:27;93495.00;;;13.10
15575;BMP180;7888;46.748;8.102;2023-04-25T05:34:52;93489.00;;;13.10
15575;BMP180;7888;46.748;8.102;2023-04-25T05:37:18;93491.00;;;13.10
15575;BMP180;7888;46.748;8.102;2023-04-25T05:39:44;93490.00;;;13.00
15575;BMP180;7888;46.748;8.102;2023-04-25T05:42:10;93503.00;;;13.00
15575;BMP180;7888;46.748;8.102;2023-04-25T05:44:36;93497.00;;;13.10
15575;BMP180;7888;46.748;8.102;2023-04-25T05:47:02;93498.00;;;13.10
15575;BMP180;7888;46.748;8.102;2023-04-25T05:49:29;93493.00;;;13.10
15575;BMP180;7888;46.748;8.102;2023-04-25T05:51:55;93495.00;;;13.10
15575;BMP180;7888;46.748;8.102;2023-04-25T05:54:21;93496.00;;;13.00
15575;BMP180;7888;46.748;8.102;2023-04-25T05:56:47;93497.00;;;12.90
15575;BMP180;7888;46.748;8.102;2023-04-25T05:59:12;93495.00;;;12.90
15575;BMP180;7888;46.748;8.102;2023-04-25T06:01:38;93489.00;;;12.90
15575;BMP180;7888;46.748;8.102;2023-04-25T06:04:04;93470.00;;;12.80
15575;BMP180;7888;46.748;8.102;2023-04-25T06:06:30;93489.00;;;12.80
15575;BMP180;7888;46.748;8.102;2023-04-25T06:08:56;93504.00;;;12.80
15575;BMP180;7888;46.748;8.102;2023-04-25T06:11:22;93514.00;;;12.80
15575;BMP180;7888;46.748;8.102;2023-04-25T06:13:47;93527.00;;;12.90
15575;BMP180;7888;46.748;8.102;2023-04-25T06:16:13;93537.00;;;12.80
15575;BMP180;7888;46.748;8.102;2023-04-25T06:18:39;93538.00;;;12.80
15575;BMP180;7888;46.748;8.102;2023-04-25T06:21:05;93546.00;;;12.80
15575;BMP180;7888;46.748;8.102;2023-04-25T06:23:31;93535.00;;;12.80
15575;BMP180;7888;46.748;8.102;2023-04-25T06:25:56;93536.00;;;12.90
15575;BMP180;7888;46.748;8.102;2023-04-25T06:28:22;93537.00;;;12.90
15575;BMP180;7888;46.748;8.102;2023-04-25T06:30:50;93524.00;;;12.90
15575;BMP180;7888;46.748;8.102;2023-04-25T06:33:16;93521.00;;;12.90
15575;BMP180;7888;46.748;8.102;2023-04-25T06:35:42;93514.00;;;13.00
15575;BMP180;7888;46.748;8.102;2023-04-25T06:38:08;93528.00;;;13.00
15575;BMP180;7888;46.748;8.102;2023-04-25T06:40:34;93528.00;;;12.90
15575;BMP180;7888;46.748;8.102;2023-04-25T06:43:00;93533.00;;;12.90
15575;BMP180;7888;46.748;8.102;2023-04-25T06:45:26;93539.00;;;12.90
15575;BMP180;7888;46.748;8.102;2023-04-25T06:47:51;93521.00;;;12.90
15575;BMP180;7888;46.748;8.102;2023-04-25T06:50:17;93545.00;;;12.90
15575;BMP180;7888;46.748;8.102;2023-04-25T06:52:43;93543.00;;;12.80
15575;BMP180;7888;46.748;8.102;2023-04-25T06:55:09;93538.00;;;12.80
15575;BMP180;7888;46.748;8.102;2023-04-25T06:57:35;93520.00;;;12.80
15575;BMP180;7888;46.748;8.102;2023-04-25T07:00:01;93539.00;;;12.80
15575;BMP180;7888;46.748;8.102;2023-04-25T07:02:26;93529.00;;;12.90
15575;BMP180;7888;46.748;8.102;2023-04-25T07:04:52;93535.00;;;12.80
15575;BMP180;7888;46.748;8.102;2023-04-25T07:07:18;93522.00;;;12.80
15575;BMP180;7888;46.748;8.102;2023-04-25T07:09:44;93532.00;;;12.80
15575;BMP180;7888;46.748;8.102;2023-04-25T07:12:10;93535.00;;;12.80
15575;BMP180;7888;46.748;8.102;2023-04-25T07:14:35;93547.00;;;12.80
15575;BMP180;7888;46.748;8.102;2023-04-25T07:17:01;93514.00;;;12.70
15575;BMP180;7888;46.748;8.102;2023-04-25T07:19:27;93542.00;;;12.70
15575;BMP180;7888;46.748;8.102;2023-04-25T07:21:55;93527.00;;;12.60
15575;BMP180;7888;46.748;8.102;2023-04-25T07:24:21;93534.00;;;12.60
15575;BMP180;7888;46.748;8.102;2023-04-25T07:26:47;93535.00;;;12.60
15575;BMP180;7888;46.748;8.102;2023-04-25T07:29:12;93530.00;;;12.60
15575;BMP180;7888;46.748;8.102;2023-04-25T07:31:39;93531.00;;;12.60
15575;BMP180;7888;46.748;8.102;2023-04-25T07:34:04;93523.00;;;12.60
15575;BMP180;7888;46.748;8.102;2023-04-25T07:36:31;93546.00;;;12.50
15575;BMP180;7888;46.748;8.102;2023-04-25T07:38:57;93546.00;;;12.50
15575;BMP180;7888;46.748;8.102;2023-04-25T07:41:23;93536.00;;;12.50
15575;BMP180;7888;46.748;8.102;2023-04-25T07:43:48;93549.00;;;12.40
15575;BMP180;7888;46.748;8.102;2023-04-25T07:46:14;93513.00;;;12.30
15575;BMP180;7888;46.748;8.102;2023-04-25T07:48:40;93556.00;;;12.30
15575;BMP180;7888;46.748;8.102;2023-04-25T07:51:06;93561.00;;;12.40
15575;BMP180;7888;46.748;8.102;2023-04-25T07:53:32;93568.00;;;12.40
15575;BMP180;7888;46.748;8.102;2023-04-25T07:56:00;93579.00;;;12.40
15575;BMP180;7888;46.748;8.102;2023-04-25T07:58:26;93578.00;;;12.40
15575;BMP180;7888;46.748;8.102;2023-04-25T08:00:51;93572.00;;;12.50
15575;BMP180;7888;46.748;8.102;2023-04-25T08:03:17;93576.00;;;12.50
15575;BMP180;7888;46.748;8.102;2023-04-25T08:05:43;93581.00;;;12.50
15575;BMP180;7888;46.748;8.102;2023-04-25T08:08:09;93584.00;;;12.60
15575;BMP180;7888;46.748;8.102;2023-04-25T08:10:35;93552.00;;;12.60
15575;BMP180;7888;46.748;8.102;2023-04-25T08:13:01;93578.00;;;12.60
15575;BMP180;7888;46.748;8.102;2023-04-25T08:15:26;93593.00;;;12.70
15575;BMP180;7888;46.748;8.102;2023-04-25T08:17:52;93585.00;;;12.70
15575;BMP180;7888;46.748;8.102;2023-04-25T08:20:18;93598.00;;;12.70
15575;BMP180;7888;46.748;8.102;2023-04-25T08:22:44;93576.00;;;12.70
15575;BMP180;7888;46.748;8.102;2023-04-25T08:25:10;93581.00;;;12.70
15575;BMP180;7888;46.748;8.102;2023-04-25T08:27:36;93578.00;;;12.80
15575;BMP180;7888;46.748;8.102;2023-04-25T08:30:03;93591.00;;;12.80
15575;BMP180;7888;46.748;8.102;2023-04-25T08:32:29;93592.00;;;12.80
15575;BMP180;7888;46.748;8.102;2023-04-25T08:34:55;93605.00;;;12.80
15575;BMP180;7888;46.748;8.102;2023-04-25T08:37:21;93599.00;;;12.80
15575;BMP180;7888;46.748;8.102;2023-04-25T08:39:47;93609.00;;;12.90
15575;BMP180;7888;46.748;8.102;2023-04-25T08:42:18;93607.00;;;12.90
15575;BMP180;7888;46.748;8.102;2023-04-25T08:44:47;93620.00;;;13.00
15575;BMP180;7888;46.748;8.102;2023-04-25T08:47:13;93627.00;;;13.00
15575;BMP180;7888;46.748;8.102;2023-04-25T08:49:45;93627.00;;;13.10
15575;BMP180;7888;46.748;8.102;2023-04-25T08:52:13;93625.00;;;13.30
15575;BMP180;7888;46.748;8.102;2023-04-25T08:54:43;93639.00;;;13.40
15575;BMP180;7888;46.748;8.102;2023-04-25T08:57:12;93634.00;;;13.50
15575;BMP180;7888;46.748;8.102;2023-04-25T08:59:40;93628.00;;;13.70
15575;BMP180;7888;46.748;8.102;2023-04-25T09:02:10;93641.00;;;13.90
15575;BMP180;7888;46.748;8.102;2023-04-25T09:04:42;93635.00;;;14.10
15575;BMP180;7888;46.748;8.102;2023-04-25T09:07:08;93622.00;;;14.20
15575;BMP180;7888;46.748;8.102;2023-04-25T09:09:34;93634.00;;;14.40
15575;BMP180;7888;46.748;8.102;2023-04-25T09:12:01;93638.00;;;14.50
15575;BMP180;7888;46.748;8.102;2023-04-25T09:14:27;93646.00;;;14.70
15575;BMP180;7888;46.748;8.102;2023-04-25T09:21:55;93653.00;;;15.10
15575;BMP180;7888;46.748;8.102;2023-04-25T09:24:41;93652.00;;;15.20
15575;BMP180;7888;46.748;8.102;2023-04-25T09:27:20;93654.00;;;15.30
15575;BMP180;7888;46.748;8.102;2023-04-25T09:29:58;93668.00;;;15.30
15575;BMP180;7888;46.748;8.102;2023-04-25T09:32:27;93655.00;;;15.40
15575;BMP180;7888;46.748;8.102;2023-04-25T09:34:56;93659.00;;;15.40
15575;BMP180;7888;46.748;8.102;2023-04-25T09:37:28;93652.00;;;15.40
15575;BMP180;7888;46.748;8.102;2023-04-25T09:39:58;93657.00;;;15.40
15575;BMP180;7888;46.748;8.102;2023-04-25T09:42:27;93652.00;;;15.40
15575;BMP180;7888;46.748;8.102;2023-04-25T09:44:56;93657.00;;;15.40
15575;BMP180;7888;46.748;8.102;2023-04-25T09:47:25;93656.00;;;15.40
15575;BMP180;7888;46.748;8.102;2023-04-25T09:49:52;93657.00;;;15.40
15575;BMP180;7888;46.748;8.102;2023-04-25T09:52:24;93666.00;;;15.40
15575;BMP180;7888;46.748;8.102;2023-04-25T09:54:51;93665.00;;;15.40
15575;BMP180;7888;46.748;8.102;2023-04-25T09:57:23;93676.00;;;15.40
15575;BMP180;7888;46.748;8.102;2023-04-25T09:59:54;93685.00;;;15.40
15575;BMP180;7888;46.748;8.102;2023-04-25T10:02:23;93687.00;;;15.40
15575;BMP180;7888;46.748;8.102;2023-04-25T10:04:55;93698.00;;;15.40
15575;BMP180;7888;46.748;8.102;2023-04-25T10:07:30;93693.00;;;15.30
15575;BMP180;7888;46.748;8.102;2023-04-25T10:10:02;93681.00;;;15.30
15575;BMP180;7888;46.748;8.102;2023-04-25T10:12:29;93693.00;;;15.30
15575;BMP180;7888;46.748;8.102;2023-04-25T10:14:58;93700.00;;;15.10
15575;BMP180;7888;46.748;8.102;2023-04-25T10:17:24;93700.00;;;15.00
15575;BMP180;7888;46.748;8.102;2023-04-25T10:19:51;93705.00;;;14.90
15575;BMP180;7888;46.748;8.102;2023-04-25T10:24:55;93708.00;;;14.60
15575;BMP180;7888;46.748;8.102;2023-04-25T10:27:22;93728.00;;;14.40
15575;BMP180;7888;46.748;8.102;2023-04-25T10:30:08;93727.00;;;14.20
15575;BMP180;7888;46.748;8.102;2023-04-25T10:32:37;93732.00;;;14.20
15575;BMP180;7888;46.748;8.102;2023-04-25T10:35:18;93746.00;;;14.10
15575;BMP180;7888;46.748;8.102;2023-04-25T10:38:04;93750.00;;;14.00
15575;BMP180;7888;46.748;8.102;2023-04-25T10:40:32;93748.00;;;13.90
15575;BMP180;7888;46.748;8.102;2023-04-25T10:46:26;93778.00;;;13.60
15575;BMP180;7888;46.748;8.102;2023-04-25T10:48:57;93772.00;;;13.50
15575;BMP180;7888;46.748;8.102;2023-04-25T10:51:31;93785.00;;;13.50
15575;BMP180;7888;46.748;8.102;2023-04-25T10:54:04;93782.00;;;13.40
15575;BMP180;7888;46.748;8.102;2023-04-25T10:56:41;93782.00;;;13.30
15575;BMP180;7888;46.748;8.102;2023-04-25T10:59:16;93788.00;;;13.20
15575;BMP180;7888;46.748;8.102;2023-04-25T11:01:53;93783.00;;;13.10
15575;BMP180;7888;46.748;8.102;2023-04-25T11:04:32;93772.00;;;13.00
15575;BMP180;7888;46.748;8.102;2023-04-25T11:07:29;93786.00;;;12.80
15575;BMP180;7888;46.748;8.102;2023-04-25T11:10:02;93782.00;;;12.70
15575;BMP180;7888;46.748;8.102;2023-04-25T11:12:31;93780.00;;;12.60
15575;BMP180;7888;46.748;8.102;2023-04-25T11:15:05;93786.00;;;12.50
15575;BMP180;7888;46.748;8.102;2023-04-25T11:17:32;93782.00;;;12.50
15575;BMP180;7888;46.748;8.102;2023-04-25T11:19:58;93793.00;;;12.50
15575;BMP180;7888;46.748;8.102;2023-04-25T11:22:26;93808.00;;;12.50
15575;BMP180;7888;46.748;8.102;2023-04-25T11:24:52;93795.00;;;12.60
15575;BMP180;7888;46.748;8.102;2023-04-25T11:27:18;93794.00;;;12.60
15575;BMP180;7888;46.748;8.102;2023-04-25T11:29:43;93806.00;;;12.70
15575;BMP180;7888;46.748;8.102;2023-04-25T11:32:09;93786.00;;;12.70
15575;BMP180;7888;46.748;8.102;2023-04-25T11:34:35;93803.00;;;12.80
15575;BMP180;7888;46.748;8.102;2023-04-25T11:37:02;93806.00;;;12.80
15575;BMP180;7888;46.748;8.102;2023-04-25T11:39:29;93806.00;;;12.80
15575;BMP180;7888;46.748;8.102;2023-04-25T11:41:55;93806.00;;;12.80
15575;BMP180;7888;46.748;8.102;2023-04-25T11:44:21;93801.00;;;12.90
15575;BMP180;7888;46.748;8.102;2023-04-25T11:46:48;93795.00;;;12.90
15575;BMP180;7888;46.748;8.102;2023-04-25T11:49:15;93812.00;;;12.90
15575;BMP180;7888;46.748;8.102;2023-04-25T11:51:47;93795.00;;;13.00
15575;BMP180;7888;46.748;8.102;2023-04-25T11:54:14;93799.00;;;13.00
15575;BMP180;7888;46.748;8.102;2023-04-25T11:56:44;93820.00;;;13.10
15575;BMP180;7888;46.748;8.102;2023-04-25T11:59:11;93810.00;;;13.20
15575;BMP180;7888;46.748;8.102;2023-04-25T12:01:40;93824.00;;;13.30
15575;BMP180;7888;46.748;8.102;2023-04-25T12:04:21;93805.00;;;13.30
15575;BMP180;7888;46.748;8.102;2023-04-25T12:06:53;93816.00;;;13.40
15575;BMP180;7888;46.748;8.102;2023-04-25T12:09:28;93812.00;;;13.50
15575;BMP180;7888;46.748;8.102;2023-04-25T12:11:57;93815.00;;;13.50
15575;BMP180;7888;46.748;8.102;2023-04-25T12:14:29;93806.00;;;13.50
15575;BMP180;7888;46.748;8.102;2023-04-25T12:16:58;93806.00;;;13.50
15575;BMP180;7888;46.748;8.102;2023-04-25T12:19:25;93827.00;;;13.60
15575;BMP180;7888;46.748;8.102;2023-04-25T12:21:52;93817.00;;;13.70
15575;BMP180;7888;46.748;8.102;2023-04-25T12:24:23;93825.00;;;13.60
15575;BMP180;7888;46.748;8.102;2023-04-25T12:27:04;93831.00;;;13.60
15575;BMP180;7888;46.748;8.102;2023-04-25T12:29:33;93823.00;;;13.60
15575;BMP180;7888;46.748;8.102;2023-04-25T12:32:00;93832.00;;;13.60
15575;BMP180;7888;46.748;8.102;2023-04-25T12:34:27;93832.00;;;13.60
15575;BMP180;7888;46.748;8.102;2023-04-25T12:36:53;93825.00;;;13.60
15575;BMP180;7888;46.748;8.102;2023-04-25T12:39:22;93827.00;;;13.60
15575;BMP180;7888;46.748;8.102;2023-04-25T12:41:51;93817.00;;;13.60
15575;BMP180;7888;46.748;8.102;2023-04-25T12:44:21;93816.00;;;13.70
15575;BMP180;7888;46.748;8.102;2023-04-25T12:46:48;93811.00;;;13.70
15575;BMP180;7888;46.748;8.102;2023-04-25T12:49:14;93814.00;;;13.70
15575;BMP180;7888;46.748;8.102;2023-04-25T12:51:40;93823.00;;;13.80
15575;BMP180;7888;46.748;8.102;2023-04-25T12:54:07;93816.00;;;13.80
15575;BMP180;7888;46.748;8.102;2023-04-25T12:56:34;93828.00;;;13.90
15575;BMP180;7888;46.748;8.102;2023-04-25T12:59:01;93838.00;;;13.80
15575;BMP180;7888;46.748;8.102;2023-04-25T13:01:28;93823.00;;;13.90
15575;BMP180;7888;46.748;8.102;2023-04-25T13:03:55;93825.00;;;13.80
15575;BMP180;7888;46.748;8.102;2023-04-25T13:06:22;93831.00;;;13.80
15575;BMP180;7888;46.748;8.102;2023-04-25T13:08:48;93821.00;;;13.80
15575;BMP180;7888;46.748;8.102;2023-04-25T13:11:14;93805.00;;;13.80
15575;BMP180;7888;46.748;8.102;2023-04-25T13:13:43;93816.00;;;13.80
15575;BMP180;7888;46.748;8.102;2023-04-25T13:16:10;93841.00;;;13.90
15575;BMP180;7888;46.748;8.102;2023-04-25T13:18:36;93829.00;;;13.90
15575;BMP180;7888;46.748;8.102;2023-04-25T13:21:02;93825.00;;;14.00
15575;BMP180;7888;46.748;8.102;2023-04-25T13:23:29;93827.00;;;14.10
15575;BMP180;7888;46.748;8.102;2023-04-25T13:25:56;93827.00;;;14.10
15575;BMP180;7888;46.748;8.102;2023-04-25T13:28:27;93826.00;;;14.10
15575;BMP180;7888;46.748;8.102;2023-04-25T13:30:54;93825.00;;;14.20
15575;BMP180;7888;46.748;8.102;2023-04-25T13:33:20;93836.00;;;14.20
15575;BMP180;7888;46.748;8.102;2023-04-25T13:35:48;93839.00;;;14.30
15575;BMP180;7888;46.748;8.102;2023-04-25T13:38:24;93832.00;;;14.40
15575;BMP180;7888;46.748;8.102;2023-04-25T13:40:52;93823.00;;;14.40
15575;BMP180;7888;46.748;8.102;2023-04-25T13:43:21;93832.00;;;14.50
15575;BMP180;7888;46.748;8.102;2023-04-25T13:45:48;93838.00;;;14.50
15575;BMP180;7888;46.748;8.102;2023-04-25T13:48:14;93845.00;;;14.60
15575;BMP180;7888;46.748;8.102;2023-04-25T13:50:40;93840.00;;;14.60
15575;BMP180;7888;46.748;8.102;2023-04-25T13:53:06;93839.00;;;14.70
15575;BMP180;7888;46.748;8.102;2023-04-25T13:55:34;93843.00;;;14.70
15575;BMP180;7888;46.748;8.102;2023-04-25T13:58:01;93845.00;;;14.80
15575;BMP180;7888;46.748;8.102;2023-04-25T14:00:37;93843.00;;;14.90
15575;BMP180;7888;46.748;8.102;2023-04-25T14:03:04;93842.00;;;14.90
15575;BMP180;7888;46.748;8.102;2023-04-25T14:05:33;93840.00;;;14.90
15575;BMP180;7888;46.748;8.102;2023-04-25T14:08:08;93836.00;;;14.90
15575;BMP180;7888;46.748;8.102;2023-04-25T14:10:34;93829.00;;;15.00
15575;BMP180;7888;46.748;8.102;2023-04-25T14:13:01;93819.00;;;15.10
15575;BMP180;7888;46.748;8.102;2023-04-25T14:15:30;93813.00;;;15.20
15575;BMP180;7888;46.748;8.102;2023-04-25T14:17:56;93834.00;;;15.30
15575;BMP180;7888;46.748;8.102;2023-04-25T14:20:22;93829.00;;;15.40
15575;BMP180;7888;46.748;8.102;2023-04-25T14:22:49;93819.00;;;15.50
15575;BMP180;7888;46.748;8.102;2023-04-25T14:25:15;93822.00;;;15.50
15575;BMP180;7888;46.748;8.102;2023-04-25T14:27:41;93831.00;;;15.50
15575;BMP180;7888;46.748;8.102;2023-04-25T14:30:08;93814.00;;;15.50
15575;BMP180;7888;46.748;8.102;2023-04-25T14:32:35;93811.00;;;15.50